Kinston Regional Jetport At Stallings Field Kinston US
ICAO: KISO
IATA: ISO
Category: Medium
Scheduled Services: No

Elevation: 93 ft
TransAlt. 18000 ft.

Airport Communications:
SEYMOUR JOHN APP/DEP:127.3
AWOS 3:132.75
CTAF:120.6
GND:121.9
RALEIGH RDO:109.6
TWR:120.6
UNICOM:122.95

KISO Zoom In..

If you have problems with the map follow the link
https://www.worldairports.se/pages/airport.php?
ICAO=KISO

Runways:

(A) RW 05 length 11500 ft width 150 ft
ILS 111.30 / hdg 50

(B) RW 23 length 11500 ft width 150 ft
---- / hdg 230

Location; KISO
Day. 19 / Time. 01.56 Zulu
* Altimeter: 30.07
* Temperature: 14° c. 57.2°f.
* Wind from: 200° Speed 15 kn with Gusts up to 21 kn.
Dewpoint: 11° c.
Visibility: 10 Statute Miles.
Clouds: Overcast 7000 ft.

KISO 190156Z 20015G21KT 10SM OVC070 14/11 A3007


Wind From 200°
Speed 15 kn.

 
 
jpsmedia worldairports.se 2020   terms of use